Time;durP1;ratioP1;P1;durP2;ratioP2;P2;SDS_P1;SDS_P2;PMS_P1;PMS_P2;Temp;Humidity;BMP_temperature;BMP_pressure;BME280_temperature;BME280_humidity;BME280_pressure;Samples;Min_cycle;Max_cycle;Signal;HPM_P1;HPM_P2
2022/09/19 00:00:43;;;;;;;3.87;1.90;;;10.40;99.90;;;;;;5032515;28;20561;-81
2022/09/19 00:03:09;;;;;;;8.33;2.27;;;10.40;99.90;;;;;;5047091;28;20212;-81
2022/09/19 00:05:40;;;;;;;5.03;2.03;;;10.40;99.90;;;;;;5035453;28;20204;-81
2022/09/19 00:08:07;;;;;;;3.80;1.83;;;10.50;99.90;;;;;;5046872;28;20260;-81
2022/09/19 00:10:40;;;;;;;3.87;1.90;;;10.50;99.90;;;;;;5032829;28;20196;-81
2022/09/19 00:13:07;;;;;;;6.17;1.93;;;10.40;99.90;;;;;;5048153;28;20200;-81
2022/09/19 00:15:34;;;;;;;4.13;2.00;;;10.40;99.90;;;;;;5022281;28;20713;-81
2022/09/19 00:18:00;;;;;;;8.90;2.07;;;10.30;99.90;;;;;;5045273;28;20208;-81
2022/09/19 00:20:25;;;;;;;6.97;2.23;;;10.30;99.90;;;;;;5030818;28;20208;-81
2022/09/19 00:25:35;;;;;;;4.10;1.73;;;10.40;99.90;;;;;;5048008;28;20237;-81
2022/09/19 00:28:00;;;;;;;3.33;2.07;;;10.30;99.90;;;;;;5046599;28;20306;-81
2022/09/19 00:30:26;;;;;;;4.03;2.20;;;10.30;99.90;;;;;;5046903;28;20299;-81
2022/09/19 00:32:53;;;;;;;7.63;2.93;;;10.30;99.90;;;;;;5045747;28;20421;-81
2022/09/19 00:35:20;;;;;;;4.77;1.90;;;10.30;99.90;;;;;;5034371;28;20204;-81
2022/09/19 00:37:45;;;;;;;5.10;2.23;;;10.30;99.90;;;;;;5030983;28;20178;-81
2022/09/19 00:40:11;;;;;;;7.43;2.50;;;10.20;99.90;;;;;;5045307;28;20232;-81
2022/09/19 00:42:36;;;;;;;4.93;1.97;;;10.30;99.90;;;;;;5030906;28;20248;-81
2022/09/19 00:45:14;;;;;;;6.17;2.50;;;10.30;99.90;;;;;;5046135;28;20229;-81
2022/09/19 00:47:46;;;;;;;4.27;2.50;;;10.30;99.90;;;;;;5045673;28;20246;-81
2022/09/19 00:50:27;;;;;;;8.43;2.50;;;10.40;99.90;;;;;;5027503;28;20180;-81
2022/09/19 00:53:09;;;;;;;7.37;2.83;;;10.30;99.90;;;;;;5024721;28;20180;-79
2022/09/19 00:55:36;;;;;;;4.70;2.47;;;10.30;99.90;;;;;;5049162;28;20564;-81
2022/09/19 00:58:09;;;;;;;8.37;3.13;;;10.30;99.90;;;;;;5025639;28;20215;-80
2022/09/19 01:00:35;;;;;;;5.57;2.60;;;10.30;99.90;;;;;;5028001;28;20237;-80
2022/09/19 01:03:09;;;;;;;9.13;3.30;;;10.30;99.90;;;;;;5041749;28;20211;-80
2022/09/19 01:06:16;;;;;;;6.73;3.43;;;10.30;99.90;;;;;;5027583;28;20203;-80
2022/09/19 01:09:22;;;;;;;6.47;3.10;;;10.30;99.90;;;;;;5018044;28;20688;-80
2022/09/19 01:12:06;;;;;;;5.30;2.70;;;10.30;99.90;;;;;;5005675;28;20298;-80
2022/09/19 01:15:04;;;;;;;4.33;2.37;;;10.30;99.90;;;;;;5047412;28;20250;-80
2022/09/19 01:17:57;;;;;;;6.80;2.87;;;10.40;99.90;;;;;;5046986;28;20581;-80
2022/09/19 01:20:42;;;;;;;5.27;3.37;;;10.30;99.90;;;;;;5022573;28;20215;-80
2022/09/19 01:23:41;;;;;;;6.70;3.20;;;10.40;99.90;;;;;;5044022;28;20271;-80
2022/09/19 01:26:43;;;;;;;3.73;2.17;;;10.40;99.90;;;;;;5044195;28;20249;-80
2022/09/19 01:29:22;;;;;;;4.93;2.83;;;10.30;99.90;;;;;;5043506;28;20172;-79
2022/09/19 01:31:57;;;;;;;8.23;2.63;;;10.40;99.90;;;;;;5045347;28;20206;-80
2022/09/19 01:34:32;;;;;;;7.23;3.03;;;10.40;99.90;;;;;;5046321;28;20231;-80
2022/09/19 01:37:05;;;;;;;8.20;3.30;;;10.30;99.90;;;;;;5043219;28;20298;-79
2022/09/19 01:39:33;;;;;;;9.63;2.87;;;10.30;99.90;;;;;;5045978;28;20222;-80
2022/09/19 01:41:59;;;;;;;4.57;2.27;;;10.30;99.90;;;;;;5042921;28;20208;-80
2022/09/19 01:44:27;;;;;;;5.60;2.83;;;10.30;99.90;;;;;;5024779;28;20270;-80
2022/09/19 01:47:14;;;;;;;6.77;2.90;;;10.20;99.90;;;;;;5045346;28;20206;-80
2022/09/19 01:49:55;;;;;;;5.97;2.93;;;10.20;99.90;;;;;;5044896;28;20202;-80
2022/09/19 01:53:00;;;;;;;6.90;2.90;;;10.20;99.90;;;;;;5028629;28;20619;-80
2022/09/19 01:55:45;;;;;;;4.30;2.80;;;10.20;99.90;;;;;;5024818;28;20273;-80
2022/09/19 01:58:15;;;;;;;7.20;2.97;;;10.10;99.90;;;;;;5042454;28;20277;-80
2022/09/19 02:00:53;;;;;;;4.03;2.80;;;10.10;99.90;;;;;;5043775;28;20307;-80
2022/09/19 02:03:38;;;;;;;7.97;3.23;;;10.10;99.90;;;;;;5027586;28;20581;-80
2022/09/19 02:06:29;;;;;;;5.80;2.87;;;10.10;99.90;;;;;;5024370;28;20290;-80
2022/09/19 02:09:22;;;;;;;5.50;3.33;;;10.20;99.90;;;;;;5035999;28;20219;-80
2022/09/19 02:11:52;;;;;;;7.80;2.87;;;10.20;99.90;;;;;;5043668;28;20235;-80
2022/09/19 02:14:21;;;;;;;5.60;3.13;;;10.20;99.90;;;;;;5043043;28;20220;-80
2022/09/19 02:16:58;;;;;;;3.90;3.20;;;10.20;99.90;;;;;;5048353;28;20176;-80
2022/09/19 02:19:29;;;;;;;5.47;3.17;;;10.20;99.90;;;;;;5048082;28;20200;-80
2022/09/19 02:21:59;;;;;;;4.33;2.97;;;10.20;99.90;;;;;;5050418;28;20678;-80
2022/09/19 02:24:30;;;;;;;5.03;3.20;;;10.20;99.90;;;;;;5051416;28;20203;-80
2022/09/19 02:27:07;;;;;;;4.57;2.83;;;10.20;99.90;;;;;;5028039;28;20298;-80
2022/09/19 02:29:33;;;;;;;4.60;2.90;;;10.20;99.90;;;;;;5037642;28;20214;-80
2022/09/19 02:32:00;;;;;;;10.13;3.33;;;10.30;99.90;;;;;;5030636;28;20647;-81
2022/09/19 02:34:26;;;;;;;7.87;3.20;;;10.40;99.90;;;;;;5048186;28;20630;-80
2022/09/19 02:37:03;;;;;;;5.27;3.33;;;10.40;99.90;;;;;;5050227;28;20203;-80
2022/09/19 02:39:36;;;;;;;6.00;3.13;;;10.30;99.90;;;;;;5050218;28;20553;-80
2022/09/19 02:42:09;;;;;;;3.80;3.40;;;10.40;99.90;;;;;;5045530;28;20212;-80
2022/09/19 02:44:54;;;;;;;7.50;3.87;;;10.30;99.90;;;;;;5050400;28;20237;-80
2022/09/19 02:47:39;;;;;;;6.60;4.17;;;10.30;99.90;;;;;;5035558;28;20219;-80
2022/09/19 02:50:16;;;;;;;8.13;3.77;;;10.30;99.90;;;;;;5048849;28;20250;-80
2022/09/19 02:52:43;;;;;;;6.53;3.63;;;10.40;99.90;;;;;;5050321;28;20224;-81
2022/09/19 02:55:17;;;;;;;8.57;4.40;;;10.30;99.90;;;;;;5053032;28;20231;-81
2022/09/19 02:57:49;;;;;;;9.07;4.07;;;10.30;99.90;;;;;;5047878;28;20796;-80
2022/09/19 03:00:15;;;;;;;5.23;3.37;;;10.30;99.90;;;;;;5051230;28;20199;-80
2022/09/19 03:02:56;;;;;;;5.37;3.70;;;10.30;99.90;;;;;;5045045;28;20700;-80
2022/09/19 03:05:25;;;;;;;8.60;4.07;;;10.20;99.90;;;;;;5046648;28;20211;-80
2022/09/19 03:07:59;;;;;;;8.73;3.83;;;10.30;99.90;;;;;;5027167;28;20199;-80
2022/09/19 03:10:34;;;;;;;7.73;4.23;;;10.30;99.90;;;;;;5048293;23;20242;-74
2022/09/19 03:13:05;;;;;;;8.23;4.53;;;10.30;99.90;;;;;;5010170;28;20205;-73
2022/09/19 03:15:40;;;;;;;6.87;4.13;;;10.20;99.90;;;;;;5015480;28;20205;-75
2022/09/19 03:18:10;;;;;;;5.77;4.63;;;10.30;99.90;;;;;;5011518;28;20210;-73
2022/09/19 03:20:37;;;;;;;6.60;5.07;;;10.30;99.90;;;;;;5005726;28;20212;-74
2022/09/19 03:23:07;;;;;;;8.93;4.80;;;10.40;99.90;;;;;;5000818;28;20180;-73
2022/09/19 03:25:33;;;;;;;9.97;5.70;;;10.40;99.90;;;;;;5005142;28;20169;-72
2022/09/19 03:27:59;;;;;;;10.43;4.80;;;10.40;99.90;;;;;;5011350;28;20228;-73
2022/09/19 03:30:24;;;;;;;10.77;4.57;;;10.40;99.90;;;;;;5003138;28;20205;-73
2022/09/19 03:32:50;;;;;;;10.73;5.00;;;10.40;99.90;;;;;;5002403;28;20209;-73
2022/09/19 03:35:16;;;;;;;9.17;5.43;;;10.40;99.90;;;;;;5001766;28;20644;-73
2022/09/19 03:37:41;;;;;;;7.73;5.03;;;10.40;99.90;;;;;;5005831;28;20173;-73
2022/09/19 03:40:08;;;;;;;8.40;5.20;;;10.40;99.90;;;;;;5001764;28;20213;-74
2022/09/19 03:42:34;;;;;;;6.03;5.17;;;10.50;99.90;;;;;;5002827;28;20259;-73
2022/09/19 03:45:00;;;;;;;8.77;4.90;;;10.40;99.90;;;;;;5006897;28;20213;-73
2022/09/19 03:47:27;;;;;;;7.33;4.63;;;10.50;99.90;;;;;;5003533;28;20213;-73
2022/09/19 03:49:52;;;;;;;9.53;5.77;;;10.50;99.90;;;;;;5002188;28;20248;-72
2022/09/19 03:52:19;;;;;;;9.80;5.57;;;10.50;99.90;;;;;;5008480;28;20684;-73
2022/09/19 03:54:45;;;;;;;7.93;5.37;;;10.50;99.90;;;;;;5001012;28;20204;-73
2022/09/19 03:57:11;;;;;;;10.73;5.57;;;10.50;99.90;;;;;;4999785;28;20206;-74
2022/09/19 03:59:41;;;;;;;8.63;5.70;;;10.60;99.90;;;;;;5007611;28;20201;-73
2022/09/19 04:02:10;;;;;;;9.43;6.50;;;10.60;99.90;;;;;;5003295;28;20508;-74
2022/09/19 04:04:36;;;;;;;8.87;5.73;;;10.60;99.90;;;;;;5002818;28;20165;-73
2022/09/19 04:07:03;;;;;;;9.57;5.90;;;10.60;99.90;;;;;;4999648;28;20208;-73
2022/09/19 04:09:29;;;;;;;8.13;5.63;;;10.60;99.90;;;;;;4999446;28;20251;-73
2022/09/19 04:11:56;;;;;;;7.27;5.03;;;10.60;99.90;;;;;;5002836;28;20205;-73
2022/09/19 04:14:22;;;;;;;11.53;5.80;;;10.50;99.90;;;;;;5004009;28;20573;-73
2022/09/19 04:16:48;;;;;;;7.40;4.77;;;10.50;99.90;;;;;;5000815;28;20174;-74
2022/09/19 04:19:14;;;;;;;8.50;4.97;;;10.60;99.90;;;;;;5004975;28;20256;-74
2022/09/19 04:21:41;;;;;;;9.47;5.53;;;10.60;99.90;;;;;;5004245;28;20296;-74
2022/09/19 04:24:08;;;;;;;6.60;5.00;;;10.60;99.90;;;;;;5001447;28;20213;-73
2022/09/19 04:26:33;;;;;;;10.80;5.97;;;10.60;99.90;;;;;;5000827;28;20209;-73
2022/09/19 04:29:02;;;;;;;8.07;4.87;;;10.60;99.90;;;;;;5003087;28;20193;-73
2022/09/19 04:31:30;;;;;;;9.90;5.23;;;10.60;99.90;;;;;;5004762;28;20169;-73
2022/09/19 04:33:56;;;;;;;8.63;5.77;;;10.70;99.90;;;;;;5000438;28;20205;-73
2022/09/19 04:36:23;;;;;;;6.63;5.27;;;10.60;99.90;;;;;;5000782;28;20237;-73
2022/09/19 04:38:52;;;;;;;12.17;5.67;;;10.60;99.90;;;;;;5001593;28;20267;-74
2022/09/19 04:41:18;;;;;;;9.30;5.20;;;10.60;99.90;;;;;;5002623;28;20197;-73
2022/09/19 04:43:50;;;;;;;9.43;5.47;;;10.60;99.90;;;;;;5002055;28;20162;-73
2022/09/19 04:46:18;;;;;;;7.70;5.33;;;10.60;99.90;;;;;;5000575;28;20197;-75
2022/09/19 04:48:43;;;;;;;8.93;5.17;;;10.60;99.90;;;;;;5004620;28;20683;-75
2022/09/19 04:51:11;;;;;;;6.80;5.33;;;10.60;99.90;;;;;;5000094;28;20224;-73
2022/09/19 04:53:38;;;;;;;7.67;5.00;;;10.60;99.90;;;;;;5000433;28;20209;-74
2022/09/19 04:56:04;;;;;;;6.93;5.13;;;10.70;99.90;;;;;;5000327;28;20189;-73
2022/09/19 04:58:30;;;;;;;7.33;5.23;;;10.70;99.90;;;;;;5004504;28;20252;-73
2022/09/19 05:00:56;;;;;;;7.90;4.90;;;10.60;99.90;;;;;;4998365;28;20205;-73
2022/09/19 05:03:25;;;;;;;7.77;5.20;;;10.70;99.90;;;;;;5001077;28;20204;-73
2022/09/19 05:05:51;;;;;;;8.53;5.50;;;10.70;99.90;;;;;;5000435;28;20215;-73
2022/09/19 05:08:25;;;;;;;8.60;5.87;;;10.70;99.90;;;;;;5002673;28;20212;-73
2022/09/19 05:10:53;;;;;;;8.03;4.63;;;10.70;99.90;;;;;;4999138;28;20299;-73
2022/09/19 05:13:18;;;;;;;6.43;4.67;;;10.70;99.90;;;;;;4999711;28;20708;-73
2022/09/19 05:15:44;;;;;;;6.73;5.17;;;10.70;99.90;;;;;;5001738;28;20201;-73
2022/09/19 05:18:10;;;;;;;10.80;5.67;;;10.80;99.90;;;;;;5005160;28;20291;-73
2022/09/19 05:20:37;;;;;;;8.47;4.47;;;10.80;99.90;;;;;;5009290;28;20758;-73
2022/09/19 05:23:03;;;;;;;7.80;4.67;;;10.80;99.90;;;;;;5004011;28;20247;-73
2022/09/19 05:25:30;;;;;;;8.90;5.40;;;10.80;99.90;;;;;;5008578;28;20173;-73
2022/09/19 05:27:57;;;;;;;6.80;4.93;;;10.80;99.90;;;;;;5011067;28;20324;-74
2022/09/19 05:30:24;;;;;;;7.17;5.37;;;10.90;99.90;;;;;;5010242;28;20258;-75
2022/09/19 05:32:53;;;;;;;7.67;4.83;;;10.90;99.90;;;;;;5003579;28;20550;-73
2022/09/19 05:35:19;;;;;;;8.63;4.77;;;10.90;99.90;;;;;;5002227;28;20211;-73
2022/09/19 05:37:45;;;;;;;9.67;4.90;;;10.90;99.90;;;;;;5003560;28;20177;-73
2022/09/19 05:40:11;;;;;;;7.00;4.10;;;11.00;99.90;;;;;;5005535;28;20595;-74
2022/09/19 05:42:46;;;;;;;8.20;4.70;;;11.00;99.90;;;;;;5003218;28;20296;-71
2022/09/19 05:45:13;;;;;;;10.37;4.70;;;11.00;99.90;;;;;;5005645;28;20220;-72
2022/09/19 05:47:39;;;;;;;9.73;4.10;;;11.00;99.90;;;;;;5007805;28;20603;-72
2022/09/19 05:50:10;;;;;;;7.57;4.50;;;11.00;99.90;;;;;;5007619;28;20198;-73
2022/09/19 05:55:26;;;;;;;7.77;4.70;;;11.10;99.90;;;;;;5006869;28;20204;-73
2022/09/19 05:57:53;;;;;;;8.07;3.90;;;11.10;99.90;;;;;;5003638;28;20224;-72
2022/09/19 06:00:20;;;;;;;7.63;4.47;;;11.10;99.90;;;;;;5002803;28;20228;-72
2022/09/19 06:02:56;;;;;;;6.67;3.70;;;11.20;99.90;;;;;;5005791;28;20201;-73
2022/09/19 06:05:24;;;;;;;7.13;4.47;;;11.20;99.90;;;;;;5005223;28;20219;-73
2022/09/19 06:07:51;;;;;;;6.50;4.33;;;11.20;99.90;;;;;;5002384;28;20206;-73
2022/09/19 06:10:20;;;;;;;8.97;4.10;;;11.20;99.90;;;;;;5003971;28;20217;-73
2022/09/19 06:12:45;;;;;;;8.53;4.60;;;11.20;99.90;;;;;;5004629;28;20201;-74
2022/09/19 06:15:11;;;;;;;7.33;3.67;;;11.20;99.90;;;;;;5003464;28;20235;-73
2022/09/19 06:17:38;;;;;;;6.17;4.00;;;11.20;99.90;;;;;;5003420;28;20211;-73
2022/09/19 06:20:04;;;;;;;8.23;4.43;;;11.20;99.90;;;;;;5006580;28;21169;-73
2022/09/19 06:22:30;;;;;;;4.70;3.60;;;11.20;99.90;;;;;;5006188;28;20195;-73
2022/09/19 06:24:55;;;;;;;7.00;4.23;;;11.30;99.90;;;;;;5001345;28;20209;-73
2022/09/19 06:27:21;;;;;;;9.47;3.67;;;11.30;99.90;;;;;;5002457;28;20208;-74
2022/09/19 06:29:47;;;;;;;6.70;2.90;;;11.40;99.90;;;;;;5006276;28;20640;-73
2022/09/19 06:32:12;;;;;;;7.03;3.20;;;11.40;99.90;;;;;;5004651;28;20196;-73
2022/09/19 06:34:38;;;;;;;7.30;4.23;;;11.40;99.90;;;;;;5001858;28;20174;-73
2022/09/19 06:37:03;;;;;;;6.10;3.23;;;11.40;99.90;;;;;;5006397;28;21111;-73
2022/09/19 06:39:29;;;;;;;6.57;2.80;;;11.50;99.90;;;;;;5006292;28;20209;-74
2022/09/19 06:41:55;;;;;;;7.40;2.80;;;11.50;99.90;;;;;;4999914;28;20205;-73
2022/09/19 06:44:22;;;;;;;6.40;3.07;;;11.50;99.90;;;;;;5002516;28;20256;-73
2022/09/19 06:46:48;;;;;;;5.93;3.60;;;11.60;99.90;;;;;;5008202;28;20288;-73
2022/09/19 06:49:14;;;;;;;7.60;2.67;;;11.60;99.90;;;;;;5006541;28;20291;-74
2022/09/19 06:51:39;;;;;;;4.40;2.90;;;11.70;99.90;;;;;;4999626;28;20204;-72
2022/09/19 06:54:05;;;;;;;6.17;2.63;;;11.70;99.90;;;;;;5005197;28;20221;-73
2022/09/19 06:56:30;;;;;;;4.10;2.87;;;11.80;99.90;;;;;;5007712;28;20207;-73
2022/09/19 06:58:56;;;;;;;3.47;2.47;;;11.90;99.90;;;;;;5001424;28;20188;-73
2022/09/19 07:01:22;;;;;;;6.17;3.13;;;11.90;99.90;;;;;;5002446;28;20181;-73
2022/09/19 07:03:48;;;;;;;10.10;4.97;;;12.00;99.90;;;;;;5006583;28;20236;-73
2022/09/19 07:06:13;;;;;;;7.23;3.77;;;12.10;99.90;;;;;;5004498;28;20235;-72
2022/09/19 07:08:39;;;;;;;6.90;2.33;;;12.20;99.90;;;;;;5001010;28;20275;-74
2022/09/19 07:11:05;;;;;;;3.23;2.30;;;12.30;99.90;;;;;;4996925;28;20641;-73
2022/09/19 07:13:30;;;;;;;4.40;2.07;;;12.30;99.90;;;;;;5007953;28;20184;-73
2022/09/19 07:16:01;;;;;;;3.17;1.97;;;12.30;99.90;;;;;;5000410;28;20212;-74
2022/09/19 07:18:27;;;;;;;4.73;1.97;;;12.30;99.90;;;;;;5008033;28;20553;-73
2022/09/19 07:20:52;;;;;;;6.07;2.23;;;12.30;99.90;;;;;;5007719;28;20220;-73
2022/09/19 07:23:19;;;;;;;3.47;2.07;;;12.30;99.90;;;;;;5006139;28;20204;-72
2022/09/19 07:25:45;;;;;;;4.00;1.80;;;12.40;99.90;;;;;;4999667;28;20647;-73
2022/09/19 07:28:14;;;;;;;2.50;1.97;;;12.40;99.90;;;;;;5003659;28;20264;-73
2022/09/19 07:30:40;;;;;;;3.20;2.20;;;12.40;99.90;;;;;;5003465;28;20221;-73
2022/09/19 07:33:07;;;;;;;2.67;2.00;;;12.50;99.90;;;;;;5002902;28;20676;-73
2022/09/19 07:35:35;;;;;;;5.00;2.10;;;12.40;99.90;;;;;;5005628;28;20295;-73
2022/09/19 07:38:01;;;;;;;7.17;2.50;;;12.50;99.90;;;;;;5009554;28;20581;-73
2022/09/19 07:40:27;;;;;;;5.77;2.10;;;12.60;99.90;;;;;;5008819;28;20335;-73
2022/09/19 07:42:58;;;;;;;3.40;2.10;;;12.70;99.90;;;;;;5003153;28;20699;-72
2022/09/19 07:45:23;;;;;;;2.70;1.90;;;12.70;99.90;;;;;;5008442;28;20219;-73
2022/09/19 07:47:49;;;;;;;1.53;1.40;;;12.80;99.90;;;;;;5009902;28;20213;-73
2022/09/19 07:50:17;;;;;;;4.30;1.83;;;12.80;99.90;;;;;;5006675;28;20209;-74
2022/09/19 07:52:46;;;;;;;2.93;1.70;;;12.80;99.90;;;;;;5006330;28;20196;-73
2022/09/19 07:55:13;;;;;;;5.83;1.87;;;12.90;99.90;;;;;;5010310;28;20289;-74
2022/09/19 07:57:39;;;;;;;3.43;1.70;;;13.10;99.90;;;;;;5006569;28;20204;-74
2022/09/19 08:00:06;;;;;;;3.43;1.83;;;13.10;99.90;;;;;;5002482;28;20213;-73
2022/09/19 08:02:31;;;;;;;4.10;2.27;;;13.20;99.90;;;;;;5007301;28;20209;-74
2022/09/19 08:04:57;;;;;;;5.77;1.70;;;13.20;99.90;;;;;;5007069;28;20201;-75
2022/09/19 08:07:23;;;;;;;2.07;1.37;;;13.20;99.90;;;;;;5006857;28;20209;-73
2022/09/19 08:09:49;;;;;;;3.93;2.40;;;13.30;99.90;;;;;;5005114;28;20217;-74
2022/09/19 08:12:14;;;;;;;2.80;1.40;;;13.40;99.90;;;;;;5009901;28;20251;-74
2022/09/19 08:14:40;;;;;;;2.33;1.50;;;13.60;99.90;;;;;;5015873;28;20701;-74
2022/09/19 08:17:05;;;;;;;2.35;1.38;;;13.80;99.90;;;;;;5004196;28;20255;-74
2022/09/19 08:19:31;;;;;;;3.00;1.80;;;14.10;99.90;;;;;;5012242;28;20193;-74
2022/09/19 08:21:58;;;;;;;6.00;1.52;;;14.40;99.90;;;;;;5007576;28;20232;-74
2022/09/19 08:24:24;;;;;;;3.35;1.33;;;14.50;99.90;;;;;;5010259;28;20283;-74
2022/09/19 08:26:50;;;;;;;4.30;2.17;;;14.40;99.90;;;;;;5001900;28;20260;-74
2022/09/19 08:29:15;;;;;;;6.32;1.70;;;14.50;99.90;;;;;;5009599;28;20312;-73
2022/09/19 08:31:41;;;;;;;2.25;1.20;;;14.50;99.90;;;;;;5007836;28;20263;-75
2022/09/19 08:34:08;;;;;;;2.03;1.50;;;14.60;99.90;;;;;;5005892;28;20214;-73
2022/09/19 08:36:35;;;;;;;2.80;1.13;;;14.70;99.90;;;;;;5008347;28;20281;-74
2022/09/19 08:39:00;;;;;;;3.72;1.42;;;14.80;99.90;;;;;;5006358;28;20632;-74
2022/09/19 08:41:58;;;;;;;3.75;1.33;;;14.80;99.90;;;;;;5007082;28;20209;-74
2022/09/19 08:44:50;;;;;;;3.20;1.02;;;14.80;99.90;;;;;;5000296;28;20296;-73
2022/09/19 08:47:19;;;;;;;2.40;1.30;;;14.90;99.90;;;;;;4998805;28;20261;-74
2022/09/19 08:49:56;;;;;;;4.20;1.50;;;14.80;99.90;;;;;;5007311;28;20189;-74
2022/09/19 08:52:29;;;;;;;2.10;0.98;;;14.70;99.90;;;;;;5005611;28;20348;-74
2022/09/19 08:54:57;;;;;;;3.38;1.25;;;14.40;99.90;;;;;;5009320;28;20204;-75
2022/09/19 08:57:33;;;;;;;5.72;1.40;;;14.40;99.90;;;;;;5010641;28;20639;-74
2022/09/19 09:00:15;;;;;;;1.55;1.10;;;14.50;99.90;;;;;;5002022;28;20644;-74
2022/09/19 09:02:58;;;;;;;1.98;1.42;;;14.60;99.90;;;;;;5005012;28;20252;-74
2022/09/19 09:05:41;;;;;;;1.33;1.20;;;15.10;99.90;;;;;;5002144;28;20243;-74
2022/09/19 09:08:40;;;;;;;5.88;1.45;;;15.40;99.90;;;;;;5003384;28;20233;-73
2022/09/19 09:11:29;;;;;;;1.88;1.05;;;16.00;99.90;;;;;;5033115;23;20672;-80
2022/09/19 09:14:00;;;;;;;3.38;1.40;;;16.50;99.90;;;;;;5028280;28;20183;-80
2022/09/19 09:16:54;;;;;;;3.47;1.00;;;16.20;99.90;;;;;;5036531;28;20183;-80
2022/09/19 09:20:06;;;;;;;3.90;1.25;;;16.10;99.90;;;;;;4988509;28;20266;-80
2022/09/19 09:22:38;;;;;;;1.83;0.80;;;16.30;99.90;;;;;;5009950;28;20299;-81
2022/09/19 09:25:14;;;;;;;4.45;1.13;;;16.60;99.90;;;;;;4997622;28;20217;-79
2022/09/19 09:27:57;;;;;;;3.95;1.33;;;16.70;99.90;;;;;;5000940;28;20582;-80
2022/09/19 09:30:23;;;;;;;3.22;0.98;;;16.50;99.90;;;;;;5010430;28;20212;-79
2022/09/19 09:32:56;;;;;;;1.88;1.02;;;16.70;99.90;;;;;;5015336;28;20209;-80
2022/09/19 09:35:26;;;;;;;2.22;1.05;;;16.90;99.90;;;;;;4996929;28;20216;-79
2022/09/19 09:38:01;;;;;;;3.35;0.90;;;17.40;99.90;;;;;;5001021;28;20186;-80
2022/09/19 09:44:03;;;;;;;1.98;0.85;;;17.30;99.90;;;;;;5011367;28;20284;-80
2022/09/19 09:46:48;;;;;;;2.70;0.70;;;16.80;99.90;;;;;;4992626;28;20239;-79
2022/09/19 09:49:14;;;;;;;1.35;1.10;;;17.00;99.90;;;;;;4994157;28;20295;-79
2022/09/19 09:51:56;;;;;;;2.10;0.73;;;17.60;99.90;;;;;;4989546;28;20204;-79
2022/09/19 09:57:54;;;;;;;1.70;1.30;;;17.20;99.90;;;;;;5011226;28;20527;-80
2022/09/19 10:03:34;;;;;;;4.20;1.40;;;16.50;99.90;;;;;;5013986;28;20312;-80
2022/09/19 10:06:05;;;;;;;2.70;0.80;;;16.10;99.90;;;;;;4995352;28;20226;-82
2022/09/19 10:08:38;;;;;;;1.70;1.08;;;15.80;99.90;;;;;;5012259;28;20604;-84
2022/09/19 10:11:27;;;;;;;2.97;0.95;;;15.10;99.90;;;;;;4991319;28;20208;-81
2022/09/19 10:14:04;;;;;;;2.65;0.60;;;14.50;99.90;;;;;;5015253;28;20169;-81
2022/09/19 10:16:34;;;;;;;2.05;0.57;;;14.10;99.90;;;;;;5009102;28;20205;-81
2022/09/19 10:19:12;;;;;;;1.58;0.50;;;13.80;99.90;;;;;;5014783;28;20282;-81
2022/09/19 10:21:38;;;;;;;2.60;2.08;;;13.50;99.90;;;;;;5012886;28;20205;-82
2022/09/19 10:24:40;;;;;;;7.13;5.18;;;13.50;99.90;;;;;;5008577;28;20757;-82
2022/09/19 10:27:13;;;;;;;2.00;1.40;;;13.30;99.90;;;;;;5007768;28;20212;-82
2022/09/19 10:29:56;;;;;;;3.30;0.90;;;13.20;99.90;;;;;;4996872;28;20200;-81
2022/09/19 10:32:24;;;;;;;4.97;4.00;;;13.00;99.90;;;;;;5003754;28;20217;-81
2022/09/19 10:34:50;;;;;;;3.53;2.70;;;12.80;99.90;;;;;;5004692;28;20183;-81
2022/09/19 10:37:18;;;;;;;1.03;0.50;;;12.80;99.90;;;;;;4994665;28;20284;-81
2022/09/19 10:39:46;;;;;;;1.73;0.90;;;12.60;99.90;;;;;;4990934;28;20623;-81
2022/09/19 10:42:30;;;;;;;2.70;1.63;;;12.60;99.90;;;;;;5006226;28;20737;-81
2022/09/19 10:44:59;;;;;;;1.10;0.70;;;12.60;99.90;;;;;;5006054;28;20200;-81
2022/09/19 10:47:28;;;;;;;1.17;0.40;;;12.60;99.90;;;;;;4995660;28;20238;-81
2022/09/19 10:50:00;;;;;;;0.93;0.50;;;12.60;99.90;;;;;;5005788;28;20170;-80
2022/09/19 10:52:30;;;;;;;1.27;0.60;;;12.70;99.90;;;;;;5007235;28;20228;-81
2022/09/19 10:54:58;;;;;;;1.13;0.60;;;12.70;99.90;;;;;;4993548;28;20213;-81
2022/09/19 10:57:48;;;;;;;0.97;0.50;;;12.70;99.90;;;;;;5009755;28;20713;-81
2022/09/19 11:00:44;;;;;;;1.20;0.63;;;12.70;99.90;;;;;;5006099;28;20230;-81
2022/09/19 11:03:26;;;;;;;1.33;1.00;;;12.90;99.90;;;;;;5010214;28;20301;-81
2022/09/19 11:06:05;;;;;;;0.77;0.60;;;13.00;99.90;;;;;;4991024;28;20214;-81
2022/09/19 11:08:43;;;;;;;3.60;0.80;;;13.10;99.90;;;;;;5011330;28;20236;-81
2022/09/19 11:11:25;;;;;;;1.92;1.10;;;13.30;99.90;;;;;;4994216;28;20647;-80
2022/09/19 11:14:10;;;;;;;1.60;0.88;;;13.50;99.90;;;;;;5014403;28;20185;-81
2022/09/19 11:17:08;;;;;;;0.55;0.50;;;13.70;99.90;;;;;;4984318;28;20201;-81
2022/09/19 11:20:14;;;;;;;1.27;0.70;;;13.90;99.90;;;;;;5011617;28;20282;-81
2022/09/19 11:23:10;;;;;;;2.85;1.15;;;14.20;99.90;;;;;;4994648;28;20243;-80
2022/09/19 11:26:14;;;;;;;0.85;0.80;;;14.40;99.90;;;;;;4991264;28;20228;-81
2022/09/19 11:29:10;;;;;;;0.80;0.80;;;15.00;99.90;;;;;;5004589;28;20296;-81
2022/09/19 11:31:44;;;;;;;1.75;1.10;;;15.50;99.90;;;;;;5009936;28;20276;-82
2022/09/19 11:34:54;;;;;;;2.67;0.90;;;15.60;99.90;;;;;;5009208;28;20213;-82
2022/09/19 11:37:38;;;;;;;1.13;0.85;;;15.80;99.90;;;;;;4972997;28;20194;-82
2022/09/19 11:40:11;;;;;;;1.20;0.63;;;15.80;99.90;;;;;;4959394;28;20207;-80
2022/09/19 11:43:12;;;;;;;2.17;1.20;;;15.80;99.90;;;;;;4999581;28;20201;-80
2022/09/19 11:46:11;;;;;;;3.13;1.95;;;15.90;99.90;;;;;;4997951;28;20697;-81
2022/09/19 11:48:54;;;;;;;2.88;1.20;;;16.00;99.90;;;;;;4994217;28;20260;-82
2022/09/19 11:51:32;;;;;;;1.88;1.00;;;15.90;99.90;;;;;;4999610;28;20205;-81
2022/09/19 11:54:42;;;;;;;2.08;1.00;;;16.00;99.90;;;;;;5012520;28;20299;-82
2022/09/19 11:57:16;;;;;;;2.25;0.73;;;16.20;99.90;;;;;;5012282;28;20723;-81
2022/09/19 11:59:42;;;;;;;1.77;1.10;;;16.40;99.90;;;;;;4991444;28;20215;-81
2022/09/19 12:02:19;;;;;;;3.00;0.90;;;16.80;99.90;;;;;;4993475;28;20225;-81
2022/09/19 12:05:03;;;;;;;2.25;0.80;;;16.80;99.90;;;;;;4999740;28;20216;-80
2022/09/19 12:07:57;;;;;;;3.25;1.42;;;16.90;99.90;;;;;;4997019;28;20217;-82
2022/09/19 12:10:29;;;;;;;3.35;1.00;;;16.90;99.90;;;;;;5010413;28;20221;-80
2022/09/19 12:13:16;;;;;;;3.75;2.15;;;16.80;99.90;;;;;;4996005;28;20229;-81
2022/09/19 12:15:48;;;;;;;3.75;0.98;;;16.20;99.90;;;;;;4998974;28;20273;-82
2022/09/19 12:18:27;;;;;;;1.00;0.47;;;15.30;99.90;;;;;;5011787;28;20224;-82
2022/09/19 12:20:57;;;;;;;1.17;0.57;;;14.50;99.90;;;;;;4995351;28;20553;-80
2022/09/19 12:26:28;;;;;;;0.95;0.70;;;13.70;99.90;;;;;;5010532;28;20251;-82
2022/09/19 12:29:34;;;;;;;2.47;1.08;;;13.60;99.90;;;;;;4994688;28;20549;-81
2022/09/19 12:32:14;;;;;;;0.93;0.43;;;13.40;99.90;;;;;;4990289;28;20664;-82
2022/09/19 12:34:51;;;;;;;1.05;0.50;;;13.30;99.90;;;;;;5012318;28;20227;-80
2022/09/19 12:37:38;;;;;;;3.53;0.77;;;13.00;99.90;;;;;;5015022;28;20280;-81
2022/09/19 12:40:29;;;;;;;0.93;0.60;;;13.00;99.90;;;;;;5013404;28;20714;-82
2022/09/19 12:42:58;;;;;;;0.77;0.43;;;13.10;99.90;;;;;;5007277;28;20272;-81
2022/09/19 12:45:36;;;;;;;2.47;0.68;;;13.10;99.90;;;;;;4995732;28;20200;-81
2022/09/19 12:48:40;;;;;;;1.30;0.53;;;12.90;99.90;;;;;;5012150;28;20214;-82
2022/09/19 12:51:08;;;;;;;1.67;0.90;;;12.90;99.90;;;;;;5008672;28;20221;-82
2022/09/19 12:54:02;;;;;;;2.50;1.10;;;12.80;99.90;;;;;;5010222;28;20303;-82
2022/09/19 12:56:37;;;;;;;1.57;0.80;;;12.90;99.90;;;;;;4994940;28;20272;-82
2022/09/19 12:59:25;;;;;;;3.10;0.93;;;12.90;99.90;;;;;;4993191;28;20271;-82
2022/09/19 13:02:21;;;;;;;2.42;1.10;;;13.00;99.90;;;;;;4998543;28;20193;-82
2022/09/19 13:05:14;;;;;;;3.55;0.98;;;13.10;99.90;;;;;;5013867;28;20229;-82
2022/09/19 13:07:46;;;;;;;1.52;1.15;;;13.10;99.90;;;;;;4993502;28;20227;-82
2022/09/19 13:10:36;;;;;;;5.23;1.30;;;13.10;99.90;;;;;;5009219;28;20966;-82
2022/09/19 13:13:24;;;;;;;1.75;0.90;;;13.30;99.90;;;;;;4998039;28;20220;-82
2022/09/19 13:15:59;;;;;;;3.58;1.10;;;13.40;99.90;;;;;;4996015;28;20679;-82
2022/09/19 13:24:04;;;;;;;1.83;1.17;;;13.50;99.90;;;;;;5009606;28;20227;-82
2022/09/19 13:26:35;;;;;;;2.80;1.00;;;13.60;99.90;;;;;;5006763;28;20212;-82
2022/09/19 13:29:24;;;;;;;2.10;1.17;;;13.60;99.90;;;;;;4992371;28;20232;-83
2022/09/19 13:31:52;;;;;;;2.58;1.30;;;13.60;99.90;;;;;;4994346;28;20193;-82
2022/09/19 13:34:41;;;;;;;2.38;1.10;;;13.60;99.90;;;;;;4990992;28;20280;-82
2022/09/19 13:37:26;;;;;;;1.42;1.08;;;13.50;99.90;;;;;;4996977;28;20225;-82
2022/09/19 13:39:57;;;;;;;3.30;1.20;;;13.50;99.90;;;;;;4996394;28;20217;-81
2022/09/19 13:42:32;;;;;;;1.85;0.93;;;13.40;99.90;;;;;;5013085;28;20225;-82